KDBN/DBN METAR and TAF weather

Enter ICAO airport designator
Station Type Date Time Source
KDBN METAR 2018/09/21 23:35 UTC NOAA

KDBN 212335Z AUTO 15012G16KT 10SM SCT060 28/19 A3008 RMK AO2


Station Type Date Time Source
KDBN Decoded METAR 2018/09/21 23:35 UTC NOAA

Dublin, W H 'Bud' Barron Airport, GA, United States (KDBN) 32-33-52N 082-59-06W
Sep 21, 2018 - 07:35 PM EDT / 2018.09.21 2335 UTC
Wind: from the SSE (150 degrees) at 14 MPH (12 KT) gusting to 18 MPH (16 KT):0
Visibility: 10 mile(s):0
Sky conditions: partly cloudy
Temperature: 82 F (28 C)
Dew Point: 66 F (19 C)
Relative Humidity: 58%
Pressure (altimeter): 30.08 in. Hg (1018 hPa)
ob: KDBN 212335Z AUTO 15012G16KT 10SM SCT060 28/19 A3008 RMK AO2
cycle: 23

Station Type Date Time Source
KDBN TAF UTC NOAA

Error!


Example: see airport list